sensor_id;sensor_type;location;lat;lon;timestamp;P1;durP1;ratioP1;P2;durP2;ratioP2
65533;SDS011;53640;55.838;37.184;2024-03-08T00:27:28;7.05;;;4.15;;
65533;SDS011;53640;55.838;37.184;2024-03-08T00:42:27;5.88;;;3.17;;
65533;SDS011;53640;55.838;37.184;2024-03-08T00:45:57;7.22;;;3.42;;
65533;SDS011;53640;55.838;37.184;2024-03-08T00:48:53;9.40;;;4.07;;
65533;SDS011;53640;55.838;37.184;2024-03-08T00:51:51;5.60;;;3.03;;
65533;SDS011;53640;55.838;37.184;2024-03-08T00:54:56;9.60;;;3.55;;
65533;SDS011;53640;55.838;37.184;2024-03-08T00:58:33;4.25;;;3.15;;
65533;SDS011;53640;55.838;37.184;2024-03-08T01:02:09;7.97;;;3.50;;
65533;SDS011;53640;55.838;37.184;2024-03-08T01:05:31;5.22;;;3.28;;
65533;SDS011;53640;55.838;37.184;2024-03-08T01:09:00;6.20;;;3.53;;
65533;SDS011;53640;55.838;37.184;2024-03-08T01:11:59;9.18;;;3.60;;
65533;SDS011;53640;55.838;37.184;2024-03-08T01:15:21;7.72;;;3.78;;
65533;SDS011;53640;55.838;37.184;2024-03-08T01:18:14;5.55;;;3.53;;
65533;SDS011;53640;55.838;37.184;2024-03-08T01:21:45;7.22;;;3.72;;
65533;SDS011;53640;55.838;37.184;2024-03-08T01:24:47;6.65;;;3.55;;
65533;SDS011;53640;55.838;37.184;2024-03-08T01:32:25;8.82;;;3.75;;
65533;SDS011;53640;55.838;37.184;2024-03-08T01:36:05;5.00;;;3.22;;
65533;SDS011;53640;55.838;37.184;2024-03-08T01:41:45;8.32;;;3.72;;
65533;SDS011;53640;55.838;37.184;2024-03-08T01:44:24;6.25;;;3.45;;
65533;SDS011;53640;55.838;37.184;2024-03-08T01:47:21;4.15;;;2.63;;
65533;SDS011;53640;55.838;37.184;2024-03-08T01:50:19;7.10;;;3.47;;
65533;SDS011;53640;55.838;37.184;2024-03-08T01:53:49;7.00;;;3.60;;
65533;SDS011;53640;55.838;37.184;2024-03-08T01:59:42;4.93;;;3.20;;
65533;SDS011;53640;55.838;37.184;2024-03-08T02:02:28;7.80;;;3.60;;
65533;SDS011;53640;55.838;37.184;2024-03-08T02:05:06;5.75;;;3.53;;
65533;SDS011;53640;55.838;37.184;2024-03-08T02:07:41;4.43;;;3.00;;
65533;SDS011;53640;55.838;37.184;2024-03-08T02:10:15;8.10;;;4.05;;
65533;SDS011;53640;55.838;37.184;2024-03-08T02:12:53;4.35;;;2.92;;
65533;SDS011;53640;55.838;37.184;2024-03-08T02:18:33;8.32;;;3.55;;
65533;SDS011;53640;55.838;37.184;2024-03-08T02:21:05;6.65;;;3.67;;
65533;SDS011;53640;55.838;37.184;2024-03-08T02:23:41;8.32;;;3.83;;
65533;SDS011;53640;55.838;37.184;2024-03-08T02:26:18;5.88;;;3.40;;
65533;SDS011;53640;55.838;37.184;2024-03-08T02:31:52;4.03;;;2.90;;
65533;SDS011;53640;55.838;37.184;2024-03-08T02:34:27;4.03;;;2.88;;
65533;SDS011;53640;55.838;37.184;2024-03-08T02:36:54;6.72;;;3.42;;
65533;SDS011;53640;55.838;37.184;2024-03-08T02:39:40;5.25;;;3.45;;
65533;SDS011;53640;55.838;37.184;2024-03-08T02:42:21;6.65;;;3.88;;
65533;SDS011;53640;55.838;37.184;2024-03-08T02:45:08;4.82;;;3.20;;
65533;SDS011;53640;55.838;37.184;2024-03-08T02:47:47;5.85;;;3.28;;
65533;SDS011;53640;55.838;37.184;2024-03-08T02:50:24;9.25;;;3.90;;
65533;SDS011;53640;55.838;37.184;2024-03-08T02:55:56;5.30;;;3.42;;
65533;SDS011;53640;55.838;37.184;2024-03-08T02:58:43;7.80;;;3.45;;
65533;SDS011;53640;55.838;37.184;2024-03-08T03:01:18;6.18;;;3.53;;
65533;SDS011;53640;55.838;37.184;2024-03-08T03:03:52;6.45;;;3.55;;
65533;SDS011;53640;55.838;37.184;2024-03-08T03:06:49;4.65;;;3.70;;
65533;SDS011;53640;55.838;37.184;2024-03-08T03:10:10;6.30;;;4.50;;
65533;SDS011;53640;55.838;37.184;2024-03-08T03:15:25;9.07;;;3.78;;
65533;SDS011;53640;55.838;37.184;2024-03-08T03:17:56;7.28;;;3.58;;
65533;SDS011;53640;55.838;37.184;2024-03-08T03:20:25;5.07;;;3.33;;
65533;SDS011;53640;55.838;37.184;2024-03-08T03:23:04;5.13;;;3.55;;
65533;SDS011;53640;55.838;37.184;2024-03-08T03:25:31;7.13;;;3.80;;
65533;SDS011;53640;55.838;37.184;2024-03-08T03:30:40;4.10;;;3.22;;
65533;SDS011;53640;55.838;37.184;2024-03-08T03:33:11;7.82;;;4.10;;
65533;SDS011;53640;55.838;37.184;2024-03-08T03:35:41;5.95;;;3.78;;
65533;SDS011;53640;55.838;37.184;2024-03-08T03:38:18;7.40;;;4.18;;
65533;SDS011;53640;55.838;37.184;2024-03-08T03:40:49;6.47;;;4.00;;
65533;SDS011;53640;55.838;37.184;2024-03-08T03:43:30;6.97;;;4.05;;
65533;SDS011;53640;55.838;37.184;2024-03-08T03:46:09;6.25;;;3.63;;
65533;SDS011;53640;55.838;37.184;2024-03-08T03:48:44;6.45;;;3.78;;
65533;SDS011;53640;55.838;37.184;2024-03-08T03:51:23;6.47;;;3.88;;
65533;SDS011;53640;55.838;37.184;2024-03-08T03:54:00;6.63;;;3.75;;
65533;SDS011;53640;55.838;37.184;2024-03-08T03:56:31;7.35;;;4.10;;
65533;SDS011;53640;55.838;37.184;2024-03-08T03:59:06;9.05;;;4.32;;
65533;SDS011;53640;55.838;37.184;2024-03-08T04:01:36;7.32;;;4.72;;
65533;SDS011;53640;55.838;37.184;2024-03-08T04:04:33;11.85;;;3.75;;
65533;SDS011;53640;55.838;37.184;2024-03-08T04:07:02;7.43;;;4.35;;
65533;SDS011;53640;55.838;37.184;2024-03-08T04:09:29;6.47;;;4.00;;
65533;SDS011;53640;55.838;37.184;2024-03-08T04:12:11;8.23;;;4.10;;
65533;SDS011;53640;55.838;37.184;2024-03-08T04:14:48;7.10;;;3.65;;
65533;SDS011;53640;55.838;37.184;2024-03-08T04:21:36;7.10;;;4.20;;
65533;SDS011;53640;55.838;37.184;2024-03-08T04:24:55;5.28;;;3.65;;
65533;SDS011;53640;55.838;37.184;2024-03-08T04:28:10;8.38;;;4.60;;
65533;SDS011;53640;55.838;37.184;2024-03-08T04:30:48;6.82;;;3.92;;
65533;SDS011;53640;55.838;37.184;2024-03-08T04:33:19;11.85;;;5.05;;
65533;SDS011;53640;55.838;37.184;2024-03-08T04:35:45;7.75;;;4.55;;
65533;SDS011;53640;55.838;37.184;2024-03-08T04:38:54;9.10;;;4.65;;
65533;SDS011;53640;55.838;37.184;2024-03-08T04:42:14;7.32;;;4.60;;
65533;SDS011;53640;55.838;37.184;2024-03-08T04:45:39;7.60;;;4.13;;
65533;SDS011;53640;55.838;37.184;2024-03-08T04:48:41;8.20;;;4.50;;
65533;SDS011;53640;55.838;37.184;2024-03-08T04:51:38;8.52;;;4.80;;
65533;SDS011;53640;55.838;37.184;2024-03-08T04:54:07;6.65;;;4.40;;
65533;SDS011;53640;55.838;37.184;2024-03-08T04:56:40;7.15;;;4.63;;
65533;SDS011;53640;55.838;37.184;2024-03-08T04:59:09;6.97;;;4.22;;
65533;SDS011;53640;55.838;37.184;2024-03-08T05:01:36;7.18;;;4.70;;
65533;SDS011;53640;55.838;37.184;2024-03-08T05:04:04;11.68;;;5.35;;
65533;SDS011;53640;55.838;37.184;2024-03-08T05:06:33;8.70;;;4.82;;
65533;SDS011;53640;55.838;37.184;2024-03-08T05:09:05;9.52;;;5.40;;
65533;SDS011;53640;55.838;37.184;2024-03-08T05:11:45;9.55;;;5.25;;
65533;SDS011;53640;55.838;37.184;2024-03-08T05:14:13;11.60;;;5.25;;
65533;SDS011;53640;55.838;37.184;2024-03-08T05:16:46;11.52;;;5.35;;
65533;SDS011;53640;55.838;37.184;2024-03-08T05:19:26;8.50;;;4.95;;
65533;SDS011;53640;55.838;37.184;2024-03-08T05:21:59;11.27;;;5.35;;
65533;SDS011;53640;55.838;37.184;2024-03-08T05:24:40;8.07;;;5.07;;
65533;SDS011;53640;55.838;37.184;2024-03-08T05:27:09;8.82;;;4.97;;
65533;SDS011;53640;55.838;37.184;2024-03-08T05:29:55;8.00;;;4.88;;
65533;SDS011;53640;55.838;37.184;2024-03-08T05:32:30;8.57;;;5.13;;
65533;SDS011;53640;55.838;37.184;2024-03-08T05:35:01;8.52;;;4.85;;
65533;SDS011;53640;55.838;37.184;2024-03-08T05:37:30;8.52;;;5.22;;
65533;SDS011;53640;55.838;37.184;2024-03-08T05:39:59;10.52;;;5.32;;
65533;SDS011;53640;55.838;37.184;2024-03-08T05:42:26;8.13;;;5.07;;
65533;SDS011;53640;55.838;37.184;2024-03-08T05:44:55;9.50;;;5.28;;
65533;SDS011;53640;55.838;37.184;2024-03-08T05:47:23;12.30;;;5.95;;
65533;SDS011;53640;55.838;37.184;2024-03-08T05:49:52;13.48;;;6.30;;
65533;SDS011;53640;55.838;37.184;2024-03-08T05:52:24;9.48;;;5.55;;
65533;SDS011;53640;55.838;37.184;2024-03-08T05:55:13;9.68;;;5.53;;
65533;SDS011;53640;55.838;37.184;2024-03-08T05:57:50;14.15;;;6.53;;
65533;SDS011;53640;55.838;37.184;2024-03-08T06:00:25;11.55;;;6.03;;
65533;SDS011;53640;55.838;37.184;2024-03-08T06:03:07;11.77;;;5.78;;
65533;SDS011;53640;55.838;37.184;2024-03-08T06:05:33;13.55;;;6.45;;
65533;SDS011;53640;55.838;37.184;2024-03-08T06:08:00;9.85;;;5.70;;
65533;SDS011;53640;55.838;37.184;2024-03-08T06:10:28;10.25;;;6.45;;
65533;SDS011;53640;55.838;37.184;2024-03-08T06:12:56;10.10;;;6.30;;
65533;SDS011;53640;55.838;37.184;2024-03-08T06:15:22;10.13;;;5.85;;
65533;SDS011;53640;55.838;37.184;2024-03-08T06:17:50;9.88;;;5.85;;
65533;SDS011;53640;55.838;37.184;2024-03-08T06:20:21;13.40;;;6.07;;
65533;SDS011;53640;55.838;37.184;2024-03-08T06:22:52;11.18;;;6.10;;
65533;SDS011;53640;55.838;37.184;2024-03-08T06:25:18;10.73;;;6.15;;
65533;SDS011;53640;55.838;37.184;2024-03-08T06:27:45;10.23;;;6.10;;
65533;SDS011;53640;55.838;37.184;2024-03-08T06:30:12;9.70;;;5.75;;
65533;SDS011;53640;55.838;37.184;2024-03-08T06:32:41;10.38;;;5.40;;
65533;SDS011;53640;55.838;37.184;2024-03-08T06:35:08;8.65;;;5.38;;
65533;SDS011;53640;55.838;37.184;2024-03-08T06:37:36;12.02;;;5.63;;
65533;SDS011;53640;55.838;37.184;2024-03-08T06:40:04;12.00;;;5.63;;
65533;SDS011;53640;55.838;37.184;2024-03-08T06:42:35;9.13;;;5.38;;
65533;SDS011;53640;55.838;37.184;2024-03-08T06:45:02;9.18;;;4.90;;
65533;SDS011;53640;55.838;37.184;2024-03-08T06:47:32;8.98;;;5.20;;
65533;SDS011;53640;55.838;37.184;2024-03-08T06:50:01;7.95;;;4.50;;
65533;SDS011;53640;55.838;37.184;2024-03-08T06:52:29;8.05;;;5.00;;
65533;SDS011;53640;55.838;37.184;2024-03-08T06:55:05;10.50;;;5.70;;
65533;SDS011;53640;55.838;37.184;2024-03-08T06:57:34;6.18;;;4.60;;
65533;SDS011;53640;55.838;37.184;2024-03-08T07:00:04;8.60;;;5.07;;
65533;SDS011;53640;55.838;37.184;2024-03-08T07:02:36;9.10;;;4.93;;
65533;SDS011;53640;55.838;37.184;2024-03-08T07:05:08;7.70;;;5.07;;
65533;SDS011;53640;55.838;37.184;2024-03-08T07:07:43;7.45;;;4.30;;
65533;SDS011;53640;55.838;37.184;2024-03-08T07:13:22;5.93;;;3.97;;
65533;SDS011;53640;55.838;37.184;2024-03-08T07:16:11;5.75;;;3.95;;
65533;SDS011;53640;55.838;37.184;2024-03-08T07:24:42;7.85;;;4.25;;
65533;SDS011;53640;55.838;37.184;2024-03-08T07:27:20;10.55;;;4.15;;
65533;SDS011;53640;55.838;37.184;2024-03-08T07:29:49;8.68;;;4.40;;
65533;SDS011;53640;55.838;37.184;2024-03-08T07:32:24;7.13;;;4.82;;
65533;SDS011;53640;55.838;37.184;2024-03-08T07:34:59;7.60;;;4.70;;
65533;SDS011;53640;55.838;37.184;2024-03-08T07:37:42;8.10;;;4.75;;
65533;SDS011;53640;55.838;37.184;2024-03-08T07:40:09;8.63;;;4.65;;
65533;SDS011;53640;55.838;37.184;2024-03-08T07:42:36;8.90;;;4.55;;
65533;SDS011;53640;55.838;37.184;2024-03-08T07:45:11;6.68;;;4.43;;
65533;SDS011;53640;55.838;37.184;2024-03-08T07:47:56;6.97;;;4.47;;
65533;SDS011;53640;55.838;37.184;2024-03-08T07:50:45;6.22;;;4.38;;
65533;SDS011;53640;55.838;37.184;2024-03-08T07:53:39;14.75;;;4.82;;
65533;SDS011;53640;55.838;37.184;2024-03-08T07:56:21;7.32;;;4.70;;
65533;SDS011;53640;55.838;37.184;2024-03-08T07:59:01;6.57;;;4.78;;
65533;SDS011;53640;55.838;37.184;2024-03-08T08:01:47;8.75;;;4.90;;
65533;SDS011;53640;55.838;37.184;2024-03-08T08:04:48;9.35;;;4.93;;
65533;SDS011;53640;55.838;37.184;2024-03-08T08:07:39;6.55;;;4.45;;
65533;SDS011;53640;55.838;37.184;2024-03-08T08:10:09;8.15;;;4.80;;
65533;SDS011;53640;55.838;37.184;2024-03-08T08:12:44;6.90;;;4.38;;
65533;SDS011;53640;55.838;37.184;2024-03-08T08:15:12;7.55;;;4.65;;
65533;SDS011;53640;55.838;37.184;2024-03-08T08:17:38;6.20;;;3.95;;
65533;SDS011;53640;55.838;37.184;2024-03-08T08:20:05;10.85;;;5.63;;
65533;SDS011;53640;55.838;37.184;2024-03-08T08:22:31;10.40;;;5.38;;
65533;SDS011;53640;55.838;37.184;2024-03-08T08:24:58;10.38;;;5.00;;
65533;SDS011;53640;55.838;37.184;2024-03-08T08:27:24;9.68;;;5.57;;
65533;SDS011;53640;55.838;37.184;2024-03-08T08:29:52;8.45;;;5.03;;
65533;SDS011;53640;55.838;37.184;2024-03-08T08:32:18;7.35;;;4.72;;
65533;SDS011;53640;55.838;37.184;2024-03-08T08:34:46;8.00;;;5.43;;
65533;SDS011;53640;55.838;37.184;2024-03-08T08:37:12;8.88;;;5.35;;
65533;SDS011;53640;55.838;37.184;2024-03-08T08:39:38;8.93;;;4.82;;
65533;SDS011;53640;55.838;37.184;2024-03-08T08:42:05;9.27;;;5.80;;
65533;SDS011;53640;55.838;37.184;2024-03-08T08:44:35;8.25;;;5.82;;
65533;SDS011;53640;55.838;37.184;2024-03-08T08:47:01;8.90;;;4.75;;
65533;SDS011;53640;55.838;37.184;2024-03-08T08:49:29;7.25;;;5.30;;
65533;SDS011;53640;55.838;37.184;2024-03-08T08:51:56;9.52;;;5.40;;
65533;SDS011;53640;55.838;37.184;2024-03-08T08:54:25;9.60;;;5.10;;
65533;SDS011;53640;55.838;37.184;2024-03-08T08:56:53;8.50;;;5.20;;
65533;SDS011;53640;55.838;37.184;2024-03-08T08:59:19;8.68;;;5.18;;
65533;SDS011;53640;55.838;37.184;2024-03-08T09:01:46;10.30;;;5.60;;
65533;SDS011;53640;55.838;37.184;2024-03-08T09:04:16;8.73;;;5.60;;
65533;SDS011;53640;55.838;37.184;2024-03-08T09:06:42;7.00;;;4.85;;
65533;SDS011;53640;55.838;37.184;2024-03-08T09:09:09;8.73;;;5.15;;
65533;SDS011;53640;55.838;37.184;2024-03-08T09:11:37;7.28;;;4.95;;
65533;SDS011;53640;55.838;37.184;2024-03-08T09:14:07;6.85;;;4.70;;
65533;SDS011;53640;55.838;37.184;2024-03-08T09:16:34;7.50;;;4.85;;
65533;SDS011;53640;55.838;37.184;2024-03-08T09:19:01;7.65;;;4.80;;
65533;SDS011;53640;55.838;37.184;2024-03-08T09:21:27;9.07;;;5.13;;
65533;SDS011;53640;55.838;37.184;2024-03-08T09:23:53;9.55;;;6.20;;
65533;SDS011;53640;55.838;37.184;2024-03-08T09:26:21;8.07;;;5.18;;
65533;SDS011;53640;55.838;37.184;2024-03-08T09:28:48;8.95;;;5.55;;
65533;SDS011;53640;55.838;37.184;2024-03-08T09:31:14;6.85;;;4.60;;
65533;SDS011;53640;55.838;37.184;2024-03-08T09:33:41;6.25;;;4.47;;
65533;SDS011;53640;55.838;37.184;2024-03-08T09:36:08;7.82;;;4.95;;
65533;SDS011;53640;55.838;37.184;2024-03-08T09:38:35;9.93;;;5.05;;
65533;SDS011;53640;55.838;37.184;2024-03-08T09:41:01;6.15;;;4.45;;
65533;SDS011;53640;55.838;37.184;2024-03-08T09:43:28;8.45;;;4.95;;
65533;SDS011;53640;55.838;37.184;2024-03-08T09:45:54;7.85;;;4.93;;
65533;SDS011;53640;55.838;37.184;2024-03-08T09:48:21;11.07;;;5.30;;
65533;SDS011;53640;55.838;37.184;2024-03-08T09:50:48;10.65;;;5.63;;
65533;SDS011;53640;55.838;37.184;2024-03-08T09:53:15;6.72;;;5.07;;
65533;SDS011;53640;55.838;37.184;2024-03-08T09:55:42;8.30;;;5.30;;
65533;SDS011;53640;55.838;37.184;2024-03-08T09:58:11;7.38;;;4.85;;
65533;SDS011;53640;55.838;37.184;2024-03-08T10:00:54;6.95;;;5.15;;
65533;SDS011;53640;55.838;37.184;2024-03-08T10:03:23;7.35;;;5.22;;
65533;SDS011;53640;55.838;37.184;2024-03-08T10:05:52;7.88;;;4.93;;
65533;SDS011;53640;55.838;37.184;2024-03-08T10:08:23;8.75;;;5.30;;
65533;SDS011;53640;55.838;37.184;2024-03-08T10:10:50;7.95;;;4.57;;
65533;SDS011;53640;55.838;37.184;2024-03-08T10:13:17;6.57;;;4.95;;
65533;SDS011;53640;55.838;37.184;2024-03-08T10:15:45;6.68;;;4.60;;
65533;SDS011;53640;55.838;37.184;2024-03-08T10:18:12;7.13;;;4.25;;
65533;SDS011;53640;55.838;37.184;2024-03-08T10:20:38;8.63;;;4.78;;
65533;SDS011;53640;55.838;37.184;2024-03-08T10:23:05;6.45;;;4.90;;
65533;SDS011;53640;55.838;37.184;2024-03-08T10:25:32;7.20;;;5.28;;
65533;SDS011;53640;55.838;37.184;2024-03-08T10:27:59;8.82;;;5.50;;
65533;SDS011;53640;55.838;37.184;2024-03-08T10:30:25;7.75;;;5.18;;
65533;SDS011;53640;55.838;37.184;2024-03-08T10:32:51;5.53;;;4.13;;
65533;SDS011;53640;55.838;37.184;2024-03-08T10:35:18;7.90;;;4.68;;
65533;SDS011;53640;55.838;37.184;2024-03-08T10:37:44;6.10;;;4.63;;
65533;SDS011;53640;55.838;37.184;2024-03-08T10:40:19;7.22;;;4.82;;
65533;SDS011;53640;55.838;37.184;2024-03-08T10:42:53;9.52;;;4.85;;
65533;SDS011;53640;55.838;37.184;2024-03-08T10:45:37;7.90;;;4.40;;
65533;SDS011;53640;55.838;37.184;2024-03-08T10:50:54;5.90;;;4.40;;
65533;SDS011;53640;55.838;37.184;2024-03-08T10:53:22;7.32;;;4.68;;
65533;SDS011;53640;55.838;37.184;2024-03-08T10:55:50;6.25;;;4.60;;
65533;SDS011;53640;55.838;37.184;2024-03-08T10:58:22;6.55;;;4.85;;
65533;SDS011;53640;55.838;37.184;2024-03-08T11:00:54;5.22;;;4.35;;
65533;SDS011;53640;55.838;37.184;2024-03-08T11:06:07;6.43;;;4.65;;
65533;SDS011;53640;55.838;37.184;2024-03-08T11:08:38;6.32;;;4.28;;
65533;SDS011;53640;55.838;37.184;2024-03-08T11:11:05;6.95;;;4.65;;
65533;SDS011;53640;55.838;37.184;2024-03-08T11:13:37;7.07;;;4.63;;
65533;SDS011;53640;55.838;37.184;2024-03-08T11:16:09;6.95;;;4.85;;
65533;SDS011;53640;55.838;37.184;2024-03-08T11:18:37;6.55;;;4.75;;
65533;SDS011;53640;55.838;37.184;2024-03-08T11:21:04;8.13;;;4.72;;
65533;SDS011;53640;55.838;37.184;2024-03-08T11:23:38;6.88;;;4.63;;
65533;SDS011;53640;55.838;37.184;2024-03-08T11:26:18;6.57;;;5.15;;
65533;SDS011;53640;55.838;37.184;2024-03-08T11:28:49;10.82;;;4.97;;
65533;SDS011;53640;55.838;37.184;2024-03-08T11:31:22;6.83;;;4.70;;
65533;SDS011;53640;55.838;37.184;2024-03-08T11:33:50;6.82;;;4.25;;
65533;SDS011;53640;55.838;37.184;2024-03-08T11:36:21;7.55;;;4.03;;
65533;SDS011;53640;55.838;37.184;2024-03-08T11:38:53;8.80;;;5.00;;
65533;SDS011;53640;55.838;37.184;2024-03-08T11:44:04;7.55;;;4.15;;
65533;SDS011;53640;55.838;37.184;2024-03-08T11:46:31;7.38;;;4.32;;
65533;SDS011;53640;55.838;37.184;2024-03-08T11:48:58;7.63;;;5.22;;
65533;SDS011;53640;55.838;37.184;2024-03-08T11:51:24;6.68;;;4.45;;
65533;SDS011;53640;55.838;37.184;2024-03-08T11:53:50;5.47;;;4.18;;
65533;SDS011;53640;55.838;37.184;2024-03-08T11:56:17;8.25;;;3.90;;
65533;SDS011;53640;55.838;37.184;2024-03-08T11:58:55;6.60;;;4.35;;
65533;SDS011;53640;55.838;37.184;2024-03-08T12:01:23;7.07;;;4.45;;
65533;SDS011;53640;55.838;37.184;2024-03-08T12:03:54;5.90;;;4.38;;
65533;SDS011;53640;55.838;37.184;2024-03-08T12:06:25;6.63;;;4.45;;
65533;SDS011;53640;55.838;37.184;2024-03-08T12:08:53;6.00;;;4.05;;
65533;SDS011;53640;55.838;37.184;2024-03-08T12:11:19;4.93;;;3.80;;
65533;SDS011;53640;55.838;37.184;2024-03-08T12:13:49;6.53;;;4.35;;
65533;SDS011;53640;55.838;37.184;2024-03-08T12:16:17;5.75;;;3.85;;
65533;SDS011;53640;55.838;37.184;2024-03-08T12:18:44;6.30;;;4.53;;
65533;SDS011;53640;55.838;37.184;2024-03-08T12:21:11;5.78;;;4.30;;
65533;SDS011;53640;55.838;37.184;2024-03-08T12:23:40;5.70;;;3.92;;
65533;SDS011;53640;55.838;37.184;2024-03-08T12:26:10;5.80;;;4.13;;
65533;SDS011;53640;55.838;37.184;2024-03-08T12:28:40;7.07;;;4.47;;
65533;SDS011;53640;55.838;37.184;2024-03-08T12:31:07;5.60;;;3.97;;
65533;SDS011;53640;55.838;37.184;2024-03-08T12:33:37;8.43;;;4.43;;
65533;SDS011;53640;55.838;37.184;2024-03-08T12:36:14;5.38;;;3.78;;
65533;SDS011;53640;55.838;37.184;2024-03-08T12:38:45;5.72;;;4.03;;
65533;SDS011;53640;55.838;37.184;2024-03-08T12:41:15;6.10;;;4.25;;
65533;SDS011;53640;55.838;37.184;2024-03-08T12:43:43;4.85;;;3.42;;
65533;SDS011;53640;55.838;37.184;2024-03-08T12:46:19;5.03;;;3.63;;
65533;SDS011;53640;55.838;37.184;2024-03-08T12:48:48;8.68;;;3.95;;
65533;SDS011;53640;55.838;37.184;2024-03-08T12:51:17;4.15;;;3.15;;
65533;SDS011;53640;55.838;37.184;2024-03-08T12:53:45;6.30;;;3.50;;
65533;SDS011;53640;55.838;37.184;2024-03-08T12:56:19;5.13;;;4.22;;
65533;SDS011;53640;55.838;37.184;2024-03-08T12:58:58;5.07;;;3.90;;
65533;SDS011;53640;55.838;37.184;2024-03-08T13:01:26;4.82;;;3.70;;
65533;SDS011;53640;55.838;37.184;2024-03-08T13:03:53;4.93;;;3.10;;
65533;SDS011;53640;55.838;37.184;2024-03-08T13:06:21;6.45;;;3.63;;
65533;SDS011;53640;55.838;37.184;2024-03-08T13:08:50;6.25;;;3.55;;
65533;SDS011;53640;55.838;37.184;2024-03-08T13:11:18;7.63;;;4.05;;
65533;SDS011;53640;55.838;37.184;2024-03-08T13:13:45;6.47;;;4.43;;
65533;SDS011;53640;55.838;37.184;2024-03-08T13:16:12;6.50;;;3.78;;
65533;SDS011;53640;55.838;37.184;2024-03-08T13:18:43;4.95;;;3.70;;
65533;SDS011;53640;55.838;37.184;2024-03-08T13:21:10;6.53;;;3.90;;
65533;SDS011;53640;55.838;37.184;2024-03-08T13:23:38;7.22;;;3.78;;
65533;SDS011;53640;55.838;37.184;2024-03-08T13:26:09;5.68;;;3.50;;
65533;SDS011;53640;55.838;37.184;2024-03-08T13:28:41;4.88;;;3.58;;
65533;SDS011;53640;55.838;37.184;2024-03-08T13:31:11;6.53;;;3.88;;
65533;SDS011;53640;55.838;37.184;2024-03-08T13:33:38;5.25;;;3.60;;
65533;SDS011;53640;55.838;37.184;2024-03-08T13:36:07;5.68;;;3.30;;
65533;SDS011;53640;55.838;37.184;2024-03-08T13:38:45;5.18;;;2.90;;
65533;SDS011;53640;55.838;37.184;2024-03-08T13:41:14;6.60;;;3.50;;
65533;SDS011;53640;55.838;37.184;2024-03-08T13:43:43;5.80;;;3.47;;
65533;SDS011;53640;55.838;37.184;2024-03-08T13:46:12;5.05;;;3.50;;
65533;SDS011;53640;55.838;37.184;2024-03-08T13:48:38;7.40;;;3.20;;
65533;SDS011;53640;55.838;37.184;2024-03-08T13:51:04;6.32;;;3.83;;
65533;SDS011;53640;55.838;37.184;2024-03-08T13:53:51;5.05;;;3.38;;
65533;SDS011;53640;55.838;37.184;2024-03-08T13:56:17;5.97;;;3.78;;
65533;SDS011;53640;55.838;37.184;2024-03-08T13:58:43;5.97;;;3.75;;
65533;SDS011;53640;55.838;37.184;2024-03-08T14:01:10;6.10;;;4.05;;
65533;SDS011;53640;55.838;37.184;2024-03-08T14:03:37;5.00;;;3.50;;
65533;SDS011;53640;55.838;37.184;2024-03-08T14:06:07;4.65;;;3.40;;
65533;SDS011;53640;55.838;37.184;2024-03-08T14:08:35;5.72;;;3.53;;
65533;SDS011;53640;55.838;37.184;2024-03-08T14:11:04;6.70;;;3.83;;
65533;SDS011;53640;55.838;37.184;2024-03-08T14:13:42;7.10;;;4.07;;
65533;SDS011;53640;55.838;37.184;2024-03-08T14:16:13;5.25;;;3.80;;
65533;SDS011;53640;55.838;37.184;2024-03-08T14:18:39;4.75;;;3.35;;
65533;SDS011;53640;55.838;37.184;2024-03-08T14:21:06;10.02;;;3.85;;
65533;SDS011;53640;55.838;37.184;2024-03-08T14:23:34;6.38;;;3.80;;
65533;SDS011;53640;55.838;37.184;2024-03-08T14:26:00;6.05;;;3.60;;
65533;SDS011;53640;55.838;37.184;2024-03-08T14:28:27;4.57;;;3.55;;
65533;SDS011;53640;55.838;37.184;2024-03-08T14:30:53;6.68;;;3.80;;
65533;SDS011;53640;55.838;37.184;2024-03-08T14:33:20;4.75;;;3.53;;
65533;SDS011;53640;55.838;37.184;2024-03-08T14:35:46;5.88;;;3.88;;
65533;SDS011;53640;55.838;37.184;2024-03-08T14:38:13;5.97;;;3.65;;
65533;SDS011;53640;55.838;37.184;2024-03-08T14:40:39;5.85;;;3.78;;
65533;SDS011;53640;55.838;37.184;2024-03-08T14:43:06;5.10;;;3.42;;
65533;SDS011;53640;55.838;37.184;2024-03-08T14:45:32;5.97;;;3.70;;
65533;SDS011;53640;55.838;37.184;2024-03-08T14:47:59;6.28;;;3.97;;
65533;SDS011;53640;55.838;37.184;2024-03-08T14:50:27;7.78;;;4.40;;
65533;SDS011;53640;55.838;37.184;2024-03-08T14:52:53;6.40;;;4.28;;
65533;SDS011;53640;55.838;37.184;2024-03-08T14:55:20;5.55;;;3.53;;
65533;SDS011;53640;55.838;37.184;2024-03-08T14:57:51;4.93;;;3.60;;
65533;SDS011;53640;55.838;37.184;2024-03-08T15:00:18;5.63;;;3.83;;
65533;SDS011;53640;55.838;37.184;2024-03-08T15:03:01;6.07;;;4.18;;
65533;SDS011;53640;55.838;37.184;2024-03-08T15:05:28;5.88;;;3.35;;
65533;SDS011;53640;55.838;37.184;2024-03-08T15:07:58;5.57;;;3.55;;
65533;SDS011;53640;55.838;37.184;2024-03-08T15:10:27;5.85;;;3.83;;
65533;SDS011;53640;55.838;37.184;2024-03-08T15:12:55;6.22;;;3.95;;
65533;SDS011;53640;55.838;37.184;2024-03-08T15:15:22;5.75;;;3.78;;
65533;SDS011;53640;55.838;37.184;2024-03-08T15:17:51;4.55;;;3.50;;
65533;SDS011;53640;55.838;37.184;2024-03-08T15:20:19;5.68;;;3.58;;
65533;SDS011;53640;55.838;37.184;2024-03-08T15:22:54;4.95;;;3.63;;
65533;SDS011;53640;55.838;37.184;2024-03-08T15:25:24;6.85;;;3.95;;
65533;SDS011;53640;55.838;37.184;2024-03-08T15:27:54;6.25;;;4.05;;
65533;SDS011;53640;55.838;37.184;2024-03-08T15:30:21;5.72;;;3.60;;
65533;SDS011;53640;55.838;37.184;2024-03-08T15:32:53;7.93;;;4.03;;
65533;SDS011;53640;55.838;37.184;2024-03-08T15:35:23;6.78;;;3.92;;
65533;SDS011;53640;55.838;37.184;2024-03-08T15:37:52;6.95;;;4.20;;
65533;SDS011;53640;55.838;37.184;2024-03-08T15:40:20;8.20;;;4.45;;
65533;SDS011;53640;55.838;37.184;2024-03-08T15:42:56;5.47;;;3.80;;
65533;SDS011;53640;55.838;37.184;2024-03-08T15:45:23;8.48;;;4.30;;
65533;SDS011;53640;55.838;37.184;2024-03-08T15:47:53;7.38;;;4.57;;
65533;SDS011;53640;55.838;37.184;2024-03-08T15:50:20;9.52;;;4.75;;
65533;SDS011;53640;55.838;37.184;2024-03-08T15:52:49;7.68;;;5.18;;
65533;SDS011;53640;55.838;37.184;2024-03-08T15:55:19;7.10;;;4.55;;
65533;SDS011;53640;55.838;37.184;2024-03-08T15:57:49;7.07;;;4.45;;
65533;SDS011;53640;55.838;37.184;2024-03-08T16:00:17;9.15;;;4.47;;
65533;SDS011;53640;55.838;37.184;2024-03-08T16:03:05;8.05;;;4.47;;
65533;SDS011;53640;55.838;37.184;2024-03-08T16:05:33;8.07;;;4.45;;
65533;SDS011;53640;55.838;37.184;2024-03-08T16:08:00;8.13;;;4.90;;
65533;SDS011;53640;55.838;37.184;2024-03-08T16:10:27;9.30;;;4.60;;
65533;SDS011;53640;55.838;37.184;2024-03-08T16:12:56;8.90;;;4.95;;
65533;SDS011;53640;55.838;37.184;2024-03-08T16:15:23;7.18;;;5.10;;
65533;SDS011;53640;55.838;37.184;2024-03-08T16:17:51;11.07;;;5.40;;
65533;SDS011;53640;55.838;37.184;2024-03-08T16:20:18;7.05;;;4.53;;
65533;SDS011;53640;55.838;37.184;2024-03-08T16:22:45;9.98;;;5.03;;
65533;SDS011;53640;55.838;37.184;2024-03-08T16:25:12;7.85;;;4.97;;
65533;SDS011;53640;55.838;37.184;2024-03-08T16:27:40;11.88;;;5.60;;
65533;SDS011;53640;55.838;37.184;2024-03-08T16:30:07;8.45;;;4.97;;
65533;SDS011;53640;55.838;37.184;2024-03-08T16:32:35;10.32;;;5.72;;
65533;SDS011;53640;55.838;37.184;2024-03-08T16:35:03;8.32;;;4.95;;
65533;SDS011;53640;55.838;37.184;2024-03-08T16:37:32;9.88;;;5.22;;
65533;SDS011;53640;55.838;37.184;2024-03-08T16:39:59;8.77;;;5.38;;